sensor_id;sensor_type;location;lat;lon;timestamp;P1;durP1;ratioP1;P2;durP2;ratioP2
14381;SDS011;7275;50.328;8.720;2022-10-18T00:00:46;4.20;;;3.20;;
14381;SDS011;7275;50.328;8.720;2022-10-18T00:03:14;5.33;;;3.23;;
14381;SDS011;7275;50.328;8.720;2022-10-18T00:05:41;5.27;;;3.47;;
14381;SDS011;7275;50.328;8.720;2022-10-18T00:08:10;4.83;;;3.03;;
14381;SDS011;7275;50.328;8.720;2022-10-18T00:10:37;4.47;;;3.00;;
14381;SDS011;7275;50.328;8.720;2022-10-18T00:13:05;5.20;;;3.23;;
14381;SDS011;7275;50.328;8.720;2022-10-18T00:15:33;5.93;;;2.80;;
14381;SDS011;7275;50.328;8.720;2022-10-18T00:18:00;5.00;;;3.10;;
14381;SDS011;7275;50.328;8.720;2022-10-18T00:20:28;4.00;;;2.73;;
14381;SDS011;7275;50.328;8.720;2022-10-18T00:22:55;4.63;;;3.00;;
14381;SDS011;7275;50.328;8.720;2022-10-18T00:25:24;4.37;;;3.00;;
14381;SDS011;7275;50.328;8.720;2022-10-18T00:27:51;4.90;;;2.90;;
14381;SDS011;7275;50.328;8.720;2022-10-18T00:30:19;3.50;;;2.70;;
14381;SDS011;7275;50.328;8.720;2022-10-18T00:32:46;5.20;;;2.80;;
14381;SDS011;7275;50.328;8.720;2022-10-18T00:35:14;5.20;;;2.67;;
14381;SDS011;7275;50.328;8.720;2022-10-18T00:37:41;5.27;;;2.77;;
14381;SDS011;7275;50.328;8.720;2022-10-18T00:40:09;3.00;;;2.40;;
14381;SDS011;7275;50.328;8.720;2022-10-18T00:42:38;3.83;;;2.53;;
14381;SDS011;7275;50.328;8.720;2022-10-18T00:45:12;4.80;;;2.53;;
14381;SDS011;7275;50.328;8.720;2022-10-18T00:47:43;3.73;;;2.40;;
14381;SDS011;7275;50.328;8.720;2022-10-18T00:50:14;4.23;;;2.90;;
14381;SDS011;7275;50.328;8.720;2022-10-18T00:52:42;5.23;;;3.03;;
14381;SDS011;7275;50.328;8.720;2022-10-18T00:55:13;3.33;;;2.90;;
14381;SDS011;7275;50.328;8.720;2022-10-18T00:57:42;5.03;;;2.63;;
14381;SDS011;7275;50.328;8.720;2022-10-18T01:00:11;4.80;;;2.80;;
14381;SDS011;7275;50.328;8.720;2022-10-18T01:02:40;2.87;;;2.60;;
14381;SDS011;7275;50.328;8.720;2022-10-18T01:05:10;2.80;;;2.20;;
14381;SDS011;7275;50.328;8.720;2022-10-18T01:07:45;2.37;;;2.13;;
14381;SDS011;7275;50.328;8.720;2022-10-18T01:10:24;5.43;;;2.17;;
14381;SDS011;7275;50.328;8.720;2022-10-18T01:13:02;4.13;;;2.87;;
14381;SDS011;7275;50.328;8.720;2022-10-18T01:15:39;4.90;;;2.43;;
14381;SDS011;7275;50.328;8.720;2022-10-18T01:18:17;4.93;;;2.30;;
14381;SDS011;7275;50.328;8.720;2022-10-18T01:21:03;3.67;;;2.37;;
14381;SDS011;7275;50.328;8.720;2022-10-18T01:26:39;2.67;;;2.20;;
14381;SDS011;7275;50.328;8.720;2022-10-18T01:29:27;4.60;;;2.63;;
14381;SDS011;7275;50.328;8.720;2022-10-18T01:32:05;4.93;;;2.60;;
14381;SDS011;7275;50.328;8.720;2022-10-18T01:34:38;4.27;;;2.83;;
14381;SDS011;7275;50.328;8.720;2022-10-18T01:37:10;2.93;;;2.43;;
14381;SDS011;7275;50.328;8.720;2022-10-18T01:39:43;3.53;;;2.30;;
14381;SDS011;7275;50.328;8.720;2022-10-18T01:42:13;5.07;;;2.70;;
14381;SDS011;7275;50.328;8.720;2022-10-18T01:44:45;5.80;;;2.60;;
14381;SDS011;7275;50.328;8.720;2022-10-18T01:47:17;4.17;;;2.50;;
14381;SDS011;7275;50.328;8.720;2022-10-18T01:49:45;7.00;;;2.73;;
14381;SDS011;7275;50.328;8.720;2022-10-18T01:52:13;5.60;;;2.77;;
14381;SDS011;7275;50.328;8.720;2022-10-18T01:54:41;3.70;;;2.83;;
14381;SDS011;7275;50.328;8.720;2022-10-18T01:57:15;4.03;;;3.03;;
14381;SDS011;7275;50.328;8.720;2022-10-18T01:59:49;4.47;;;2.93;;
14381;SDS011;7275;50.328;8.720;2022-10-18T02:02:30;3.30;;;2.40;;
14381;SDS011;7275;50.328;8.720;2022-10-18T02:05:10;3.03;;;2.50;;
14381;SDS011;7275;50.328;8.720;2022-10-18T02:07:46;3.53;;;2.60;;
14381;SDS011;7275;50.328;8.720;2022-10-18T02:10:38;3.30;;;2.53;;
14381;SDS011;7275;50.328;8.720;2022-10-18T02:13:09;3.07;;;2.77;;
14381;SDS011;7275;50.328;8.720;2022-10-18T02:15:40;3.53;;;2.97;;
14381;SDS011;7275;50.328;8.720;2022-10-18T02:18:13;3.87;;;3.23;;
14381;SDS011;7275;50.328;8.720;2022-10-18T02:20:44;3.90;;;3.00;;
14381;SDS011;7275;50.328;8.720;2022-10-18T02:23:11;3.50;;;3.20;;
14381;SDS011;7275;50.328;8.720;2022-10-18T02:25:41;4.60;;;3.47;;
14381;SDS011;7275;50.328;8.720;2022-10-18T02:28:08;4.03;;;3.60;;
14381;SDS011;7275;50.328;8.720;2022-10-18T02:30:36;4.03;;;3.47;;
14381;SDS011;7275;50.328;8.720;2022-10-18T02:33:15;6.57;;;3.50;;
14381;SDS011;7275;50.328;8.720;2022-10-18T02:35:48;3.57;;;2.57;;
14381;SDS011;7275;50.328;8.720;2022-10-18T02:38:21;3.73;;;2.13;;
14381;SDS011;7275;50.328;8.720;2022-10-18T02:40:51;3.17;;;1.90;;
14381;SDS011;7275;50.328;8.720;2022-10-18T02:43:19;1.77;;;1.40;;
14381;SDS011;7275;50.328;8.720;2022-10-18T02:45:49;1.83;;;1.50;;
14381;SDS011;7275;50.328;8.720;2022-10-18T02:48:18;5.13;;;1.10;;
14381;SDS011;7275;50.328;8.720;2022-10-18T02:50:46;1.13;;;1.03;;
14381;SDS011;7275;50.328;8.720;2022-10-18T02:53:13;1.00;;;0.90;;
14381;SDS011;7275;50.328;8.720;2022-10-18T02:55:41;1.13;;;1.03;;
14381;SDS011;7275;50.328;8.720;2022-10-18T02:58:08;1.70;;;1.00;;
14381;SDS011;7275;50.328;8.720;2022-10-18T03:00:36;3.07;;;0.97;;
14381;SDS011;7275;50.328;8.720;2022-10-18T03:03:03;1.10;;;1.00;;
14381;SDS011;7275;50.328;8.720;2022-10-18T03:05:32;1.30;;;0.87;;
14381;SDS011;7275;50.328;8.720;2022-10-18T03:08:00;1.00;;;0.90;;
14381;SDS011;7275;50.328;8.720;2022-10-18T03:10:27;1.07;;;1.00;;
14381;SDS011;7275;50.328;8.720;2022-10-18T03:12:55;1.10;;;1.00;;
14381;SDS011;7275;50.328;8.720;2022-10-18T03:15:22;1.20;;;1.10;;
14381;SDS011;7275;50.328;8.720;2022-10-18T03:17:50;1.87;;;1.33;;
14381;SDS011;7275;50.328;8.720;2022-10-18T03:20:17;1.30;;;1.17;;
14381;SDS011;7275;50.328;8.720;2022-10-18T03:22:46;1.40;;;1.27;;
14381;SDS011;7275;50.328;8.720;2022-10-18T03:25:13;1.50;;;1.40;;
14381;SDS011;7275;50.328;8.720;2022-10-18T03:27:41;1.30;;;1.20;;
14381;SDS011;7275;50.328;8.720;2022-10-18T03:30:09;1.40;;;0.90;;
14381;SDS011;7275;50.328;8.720;2022-10-18T03:32:38;1.53;;;1.00;;
14381;SDS011;7275;50.328;8.720;2022-10-18T03:35:06;2.27;;;0.70;;
14381;SDS011;7275;50.328;8.720;2022-10-18T03:37:35;1.27;;;0.60;;
14381;SDS011;7275;50.328;8.720;2022-10-18T03:40:04;0.90;;;0.60;;
14381;SDS011;7275;50.328;8.720;2022-10-18T03:42:33;0.60;;;0.60;;
14381;SDS011;7275;50.328;8.720;2022-10-18T03:45:01;1.97;;;0.83;;
14381;SDS011;7275;50.328;8.720;2022-10-18T03:47:28;0.70;;;0.70;;
14381;SDS011;7275;50.328;8.720;2022-10-18T03:49:56;1.17;;;0.80;;
14381;SDS011;7275;50.328;8.720;2022-10-18T03:52:23;1.13;;;0.80;;
14381;SDS011;7275;50.328;8.720;2022-10-18T03:54:51;1.97;;;0.80;;
14381;SDS011;7275;50.328;8.720;2022-10-18T03:57:20;1.33;;;0.90;;
14381;SDS011;7275;50.328;8.720;2022-10-18T03:59:47;1.07;;;0.97;;
14381;SDS011;7275;50.328;8.720;2022-10-18T04:02:14;1.80;;;0.87;;
14381;SDS011;7275;50.328;8.720;2022-10-18T04:04:42;1.00;;;0.80;;
14381;SDS011;7275;50.328;8.720;2022-10-18T04:07:09;2.07;;;0.90;;
14381;SDS011;7275;50.328;8.720;2022-10-18T04:09:37;1.10;;;0.90;;
14381;SDS011;7275;50.328;8.720;2022-10-18T04:12:04;1.67;;;1.17;;
14381;SDS011;7275;50.328;8.720;2022-10-18T04:14:33;1.10;;;1.00;;
14381;SDS011;7275;50.328;8.720;2022-10-18T04:17:01;1.77;;;1.20;;
14381;SDS011;7275;50.328;8.720;2022-10-18T04:19:30;1.10;;;1.00;;
14381;SDS011;7275;50.328;8.720;2022-10-18T04:21:57;1.63;;;1.20;;
14381;SDS011;7275;50.328;8.720;2022-10-18T04:24:24;1.13;;;1.03;;
14381;SDS011;7275;50.328;8.720;2022-10-18T04:26:52;1.50;;;1.30;;
14381;SDS011;7275;50.328;8.720;2022-10-18T04:29:19;2.33;;;1.50;;
14381;SDS011;7275;50.328;8.720;2022-10-18T04:31:48;1.83;;;1.60;;
14381;SDS011;7275;50.328;8.720;2022-10-18T04:34:16;2.73;;;1.43;;
14381;SDS011;7275;50.328;8.720;2022-10-18T04:36:43;1.70;;;1.53;;
14381;SDS011;7275;50.328;8.720;2022-10-18T04:39:11;1.63;;;1.30;;
14381;SDS011;7275;50.328;8.720;2022-10-18T04:41:38;1.53;;;1.40;;
14381;SDS011;7275;50.328;8.720;2022-10-18T04:44:06;1.70;;;1.60;;
14381;SDS011;7275;50.328;8.720;2022-10-18T04:46:33;1.90;;;1.60;;
14381;SDS011;7275;50.328;8.720;2022-10-18T04:49:02;1.50;;;1.40;;
14381;SDS011;7275;50.328;8.720;2022-10-18T04:51:29;1.40;;;1.30;;
14381;SDS011;7275;50.328;8.720;2022-10-18T04:53:57;1.43;;;1.30;;
14381;SDS011;7275;50.328;8.720;2022-10-18T04:56:24;1.70;;;1.33;;
14381;SDS011;7275;50.328;8.720;2022-10-18T04:58:52;1.20;;;1.13;;
14381;SDS011;7275;50.328;8.720;2022-10-18T05:01:19;1.70;;;1.37;;
14381;SDS011;7275;50.328;8.720;2022-10-18T05:03:50;1.30;;;1.20;;
14381;SDS011;7275;50.328;8.720;2022-10-18T05:06:19;2.13;;;1.30;;
14381;SDS011;7275;50.328;8.720;2022-10-18T05:08:47;1.43;;;1.10;;
14381;SDS011;7275;50.328;8.720;2022-10-18T05:11:15;1.50;;;1.20;;
14381;SDS011;7275;50.328;8.720;2022-10-18T05:13:42;1.30;;;1.20;;
14381;SDS011;7275;50.328;8.720;2022-10-18T05:16:15;1.37;;;1.27;;
14381;SDS011;7275;50.328;8.720;2022-10-18T05:18:42;1.20;;;1.03;;
14381;SDS011;7275;50.328;8.720;2022-10-18T05:21:10;1.43;;;1.20;;
14381;SDS011;7275;50.328;8.720;2022-10-18T05:23:39;1.67;;;1.30;;
14381;SDS011;7275;50.328;8.720;2022-10-18T05:26:06;2.70;;;1.30;;
14381;SDS011;7275;50.328;8.720;2022-10-18T05:28:34;2.43;;;1.40;;
14381;SDS011;7275;50.328;8.720;2022-10-18T05:31:06;1.67;;;1.37;;
14381;SDS011;7275;50.328;8.720;2022-10-18T05:33:35;1.40;;;1.23;;
14381;SDS011;7275;50.328;8.720;2022-10-18T05:36:02;1.57;;;1.43;;
14381;SDS011;7275;50.328;8.720;2022-10-18T05:38:30;1.83;;;1.43;;
14381;SDS011;7275;50.328;8.720;2022-10-18T05:41:02;1.77;;;1.50;;
14381;SDS011;7275;50.328;8.720;2022-10-18T05:43:30;2.30;;;1.73;;
14381;SDS011;7275;50.328;8.720;2022-10-18T05:45:57;2.20;;;1.67;;
14381;SDS011;7275;50.328;8.720;2022-10-18T05:48:25;1.50;;;1.40;;
14381;SDS011;7275;50.328;8.720;2022-10-18T05:50:52;1.50;;;1.40;;
14381;SDS011;7275;50.328;8.720;2022-10-18T05:53:20;1.70;;;1.60;;
14381;SDS011;7275;50.328;8.720;2022-10-18T05:56:03;2.00;;;1.60;;
14381;SDS011;7275;50.328;8.720;2022-10-18T05:58:31;1.73;;;1.60;;
14381;SDS011;7275;50.328;8.720;2022-10-18T06:00:59;1.50;;;1.40;;
14381;SDS011;7275;50.328;8.720;2022-10-18T06:03:27;1.03;;;1.00;;
14381;SDS011;7275;50.328;8.720;2022-10-18T06:05:59;1.37;;;1.27;;
14381;SDS011;7275;50.328;8.720;2022-10-18T06:08:27;2.10;;;1.63;;
14381;SDS011;7275;50.328;8.720;2022-10-18T06:10:55;1.50;;;1.40;;
14381;SDS011;7275;50.328;8.720;2022-10-18T06:13:24;1.60;;;1.33;;
14381;SDS011;7275;50.328;8.720;2022-10-18T06:15:55;1.37;;;1.27;;
14381;SDS011;7275;50.328;8.720;2022-10-18T06:18:23;1.70;;;1.60;;
14381;SDS011;7275;50.328;8.720;2022-10-18T06:20:55;1.50;;;1.40;;
14381;SDS011;7275;50.328;8.720;2022-10-18T06:23:23;1.40;;;1.30;;
14381;SDS011;7275;50.328;8.720;2022-10-18T06:25:51;1.40;;;1.30;;
14381;SDS011;7275;50.328;8.720;2022-10-18T06:28:18;1.60;;;1.27;;
14381;SDS011;7275;50.328;8.720;2022-10-18T06:30:47;1.77;;;1.33;;
14381;SDS011;7275;50.328;8.720;2022-10-18T06:33:15;2.20;;;1.40;;
14381;SDS011;7275;50.328;8.720;2022-10-18T06:35:42;1.63;;;1.30;;
14381;SDS011;7275;50.328;8.720;2022-10-18T06:38:09;1.43;;;1.20;;
14381;SDS011;7275;50.328;8.720;2022-10-18T06:40:37;1.50;;;1.40;;
14381;SDS011;7275;50.328;8.720;2022-10-18T06:43:04;2.80;;;1.73;;
14381;SDS011;7275;50.328;8.720;2022-10-18T06:45:45;2.33;;;1.50;;
14381;SDS011;7275;50.328;8.720;2022-10-18T06:48:15;1.60;;;1.50;;
14381;SDS011;7275;50.328;8.720;2022-10-18T06:50:49;1.73;;;1.47;;
14381;SDS011;7275;50.328;8.720;2022-10-18T06:53:17;3.27;;;1.50;;
14381;SDS011;7275;50.328;8.720;2022-10-18T06:55:44;1.67;;;1.50;;
14381;SDS011;7275;50.328;8.720;2022-10-18T06:58:12;1.80;;;1.40;;
14381;SDS011;7275;50.328;8.720;2022-10-18T07:00:40;1.33;;;1.23;;
14381;SDS011;7275;50.328;8.720;2022-10-18T07:03:09;1.50;;;1.40;;
14381;SDS011;7275;50.328;8.720;2022-10-18T07:05:36;1.60;;;1.50;;
14381;SDS011;7275;50.328;8.720;2022-10-18T07:08:04;2.40;;;1.60;;
14381;SDS011;7275;50.328;8.720;2022-10-18T07:10:31;1.83;;;1.50;;
14381;SDS011;7275;50.328;8.720;2022-10-18T07:12:59;1.67;;;1.47;;
14381;SDS011;7275;50.328;8.720;2022-10-18T07:15:46;1.80;;;1.70;;
14381;SDS011;7275;50.328;8.720;2022-10-18T07:18:15;1.70;;;1.60;;
14381;SDS011;7275;50.328;8.720;2022-10-18T07:20:43;1.90;;;1.80;;
14381;SDS011;7275;50.328;8.720;2022-10-18T07:23:10;1.93;;;1.70;;
14381;SDS011;7275;50.328;8.720;2022-10-18T07:25:37;4.03;;;2.10;;
14381;SDS011;7275;50.328;8.720;2022-10-18T07:28:05;2.87;;;1.87;;
14381;SDS011;7275;50.328;8.720;2022-10-18T07:30:32;2.33;;;1.90;;
14381;SDS011;7275;50.328;8.720;2022-10-18T07:33:00;2.20;;;2.00;;
14381;SDS011;7275;50.328;8.720;2022-10-18T07:35:29;2.47;;;1.80;;
14381;SDS011;7275;50.328;8.720;2022-10-18T07:37:56;1.90;;;1.73;;
14381;SDS011;7275;50.328;8.720;2022-10-18T07:40:24;1.87;;;1.60;;
14381;SDS011;7275;50.328;8.720;2022-10-18T07:42:51;2.80;;;1.83;;
14381;SDS011;7275;50.328;8.720;2022-10-18T07:45:19;1.70;;;1.60;;
14381;SDS011;7275;50.328;8.720;2022-10-18T07:47:46;2.77;;;1.83;;
14381;SDS011;7275;50.328;8.720;2022-10-18T07:50:14;2.70;;;1.57;;
14381;SDS011;7275;50.328;8.720;2022-10-18T07:52:43;1.57;;;1.47;;
14381;SDS011;7275;50.328;8.720;2022-10-18T07:55:11;1.80;;;1.53;;
14381;SDS011;7275;50.328;8.720;2022-10-18T07:57:38;1.77;;;1.67;;
14381;SDS011;7275;50.328;8.720;2022-10-18T08:00:06;2.17;;;1.53;;
14381;SDS011;7275;50.328;8.720;2022-10-18T08:02:34;1.70;;;1.60;;
14381;SDS011;7275;50.328;8.720;2022-10-18T08:05:02;2.00;;;1.73;;
14381;SDS011;7275;50.328;8.720;2022-10-18T08:07:29;1.57;;;1.47;;
14381;SDS011;7275;50.328;8.720;2022-10-18T08:10:00;1.83;;;1.63;;
14381;SDS011;7275;50.328;8.720;2022-10-18T08:12:27;1.80;;;1.70;;
14381;SDS011;7275;50.328;8.720;2022-10-18T08:14:55;1.60;;;1.50;;
14381;SDS011;7275;50.328;8.720;2022-10-18T08:17:22;1.97;;;1.73;;
14381;SDS011;7275;50.328;8.720;2022-10-18T08:19:50;2.30;;;1.80;;
14381;SDS011;7275;50.328;8.720;2022-10-18T08:22:37;1.70;;;1.50;;
14381;SDS011;7275;50.328;8.720;2022-10-18T08:25:06;1.93;;;1.47;;
14381;SDS011;7275;50.328;8.720;2022-10-18T08:27:34;1.63;;;1.50;;
14381;SDS011;7275;50.328;8.720;2022-10-18T08:30:02;1.57;;;1.30;;
14381;SDS011;7275;50.328;8.720;2022-10-18T08:32:29;1.40;;;1.30;;
14381;SDS011;7275;50.328;8.720;2022-10-18T08:34:57;1.40;;;1.30;;
14381;SDS011;7275;50.328;8.720;2022-10-18T08:37:27;1.20;;;1.10;;
14381;SDS011;7275;50.328;8.720;2022-10-18T08:39:55;2.07;;;1.20;;
14381;SDS011;7275;50.328;8.720;2022-10-18T08:42:30;1.17;;;1.00;;
14381;SDS011;7275;50.328;8.720;2022-10-18T08:45:09;1.20;;;1.10;;
14381;SDS011;7275;50.328;8.720;2022-10-18T08:47:58;0.90;;;0.90;;
14381;SDS011;7275;50.328;8.720;2022-10-18T08:50:27;0.97;;;0.97;;
14381;SDS011;7275;50.328;8.720;2022-10-18T08:53:02;1.63;;;1.40;;
14381;SDS011;7275;50.328;8.720;2022-10-18T08:55:41;1.70;;;1.60;;
14381;SDS011;7275;50.328;8.720;2022-10-18T08:58:16;1.53;;;1.37;;
14381;SDS011;7275;50.328;8.720;2022-10-18T09:00:48;2.10;;;1.27;;
14381;SDS011;7275;50.328;8.720;2022-10-18T09:03:26;0.93;;;0.93;;
14381;SDS011;7275;50.328;8.720;2022-10-18T09:06:10;1.17;;;1.07;;
14381;SDS011;7275;50.328;8.720;2022-10-18T09:08:51;1.13;;;1.00;;
14381;SDS011;7275;50.328;8.720;2022-10-18T09:11:32;1.30;;;1.20;;
14381;SDS011;7275;50.328;8.720;2022-10-18T09:14:16;1.00;;;1.00;;
14381;SDS011;7275;50.328;8.720;2022-10-18T09:16:54;1.10;;;1.00;;
14381;SDS011;7275;50.328;8.720;2022-10-18T09:19:33;0.80;;;0.80;;
14381;SDS011;7275;50.328;8.720;2022-10-18T09:22:12;1.17;;;1.07;;
14381;SDS011;7275;50.328;8.720;2022-10-18T09:24:43;1.10;;;1.00;;
14381;SDS011;7275;50.328;8.720;2022-10-18T09:27:17;0.87;;;0.87;;
14381;SDS011;7275;50.328;8.720;2022-10-18T09:29:52;1.10;;;1.00;;
14381;SDS011;7275;50.328;8.720;2022-10-18T09:32:28;1.87;;;1.00;;
14381;SDS011;7275;50.328;8.720;2022-10-18T09:35:10;1.83;;;0.93;;
14381;SDS011;7275;50.328;8.720;2022-10-18T09:37:40;1.20;;;1.10;;
14381;SDS011;7275;50.328;8.720;2022-10-18T09:40:12;1.37;;;0.90;;
14381;SDS011;7275;50.328;8.720;2022-10-18T09:42:47;1.20;;;1.10;;
14381;SDS011;7275;50.328;8.720;2022-10-18T09:45:24;1.07;;;0.90;;
14381;SDS011;7275;50.328;8.720;2022-10-18T09:47:57;1.70;;;0.70;;
14381;SDS011;7275;50.328;8.720;2022-10-18T09:50:34;0.60;;;0.60;;
14381;SDS011;7275;50.328;8.720;2022-10-18T09:53:07;0.60;;;0.60;;
14381;SDS011;7275;50.328;8.720;2022-10-18T09:55:49;0.88;;;0.70;;
14381;SDS011;7275;50.328;8.720;2022-10-18T09:58:23;1.42;;;0.80;;
14381;SDS011;7275;50.328;8.720;2022-10-18T10:00:56;0.90;;;0.80;;
14381;SDS011;7275;50.328;8.720;2022-10-18T10:03:24;0.80;;;0.80;;
14381;SDS011;7275;50.328;8.720;2022-10-18T10:06:00;0.70;;;0.70;;
14381;SDS011;7275;50.328;8.720;2022-10-18T10:08:31;1.88;;;1.35;;
14381;SDS011;7275;50.328;8.720;2022-10-18T10:10:59;1.10;;;1.00;;
14381;SDS011;7275;50.328;8.720;2022-10-18T10:13:27;1.60;;;1.10;;
14381;SDS011;7275;50.328;8.720;2022-10-18T10:15:56;1.20;;;1.10;;
14381;SDS011;7275;50.328;8.720;2022-10-18T10:18:28;0.80;;;0.70;;
14381;SDS011;7275;50.328;8.720;2022-10-18T10:20:57;0.68;;;0.68;;
14381;SDS011;7275;50.328;8.720;2022-10-18T10:23:28;0.77;;;0.77;;
14381;SDS011;7275;50.328;8.720;2022-10-18T10:26:00;0.70;;;0.70;;
14381;SDS011;7275;50.328;8.720;2022-10-18T10:28:30;0.60;;;0.60;;
14381;SDS011;7275;50.328;8.720;2022-10-18T10:33:56;1.42;;;0.65;;
14381;SDS011;7275;50.328;8.720;2022-10-18T10:36:26;0.80;;;0.80;;
14381;SDS011;7275;50.328;8.720;2022-10-18T10:39:04;1.88;;;1.00;;
14381;SDS011;7275;50.328;8.720;2022-10-18T10:41:32;0.93;;;0.90;;
14381;SDS011;7275;50.328;8.720;2022-10-18T10:44:01;0.73;;;0.73;;
14381;SDS011;7275;50.328;8.720;2022-10-18T10:46:35;0.80;;;0.80;;
14381;SDS011;7275;50.328;8.720;2022-10-18T10:49:03;0.70;;;0.70;;
14381;SDS011;7275;50.328;8.720;2022-10-18T10:51:52;1.00;;;0.75;;
14381;SDS011;7275;50.328;8.720;2022-10-18T10:54:42;3.25;;;0.60;;
14381;SDS011;7275;50.328;8.720;2022-10-18T10:57:19;0.35;;;0.35;;
14381;SDS011;7275;50.328;8.720;2022-10-18T10:59:51;0.50;;;0.50;;
14381;SDS011;7275;50.328;8.720;2022-10-18T11:02:22;0.60;;;0.60;;
14381;SDS011;7275;50.328;8.720;2022-10-18T11:04:56;1.25;;;0.68;;
14381;SDS011;7275;50.328;8.720;2022-10-18T11:07:46;1.13;;;1.02;;
14381;SDS011;7275;50.328;8.720;2022-10-18T11:10:18;1.30;;;1.10;;
14381;SDS011;7275;50.328;8.720;2022-10-18T11:12:50;1.85;;;0.95;;
14381;SDS011;7275;50.328;8.720;2022-10-18T11:15:28;0.60;;;0.60;;
14381;SDS011;7275;50.328;8.720;2022-10-18T11:18:03;0.60;;;0.60;;
14381;SDS011;7275;50.328;8.720;2022-10-18T11:20:44;0.40;;;0.40;;
14381;SDS011;7275;50.328;8.720;2022-10-18T11:23:15;0.50;;;0.50;;
14381;SDS011;7275;50.328;8.720;2022-10-18T11:25:54;1.05;;;0.60;;
14381;SDS011;7275;50.328;8.720;2022-10-18T11:28:32;1.70;;;0.60;;
14381;SDS011;7275;50.328;8.720;2022-10-18T11:31:14;0.50;;;0.50;;
14381;SDS011;7275;50.328;8.720;2022-10-18T11:33:52;1.05;;;0.55;;
14381;SDS011;7275;50.328;8.720;2022-10-18T11:36:37;0.40;;;0.40;;
14381;SDS011;7275;50.328;8.720;2022-10-18T11:39:29;0.50;;;0.50;;
14381;SDS011;7275;50.328;8.720;2022-10-18T11:42:06;0.60;;;0.52;;
14381;SDS011;7275;50.328;8.720;2022-10-18T11:44:41;0.60;;;0.50;;
14381;SDS011;7275;50.328;8.720;2022-10-18T11:47:16;0.50;;;0.50;;
14381;SDS011;7275;50.328;8.720;2022-10-18T11:49:56;0.45;;;0.45;;
14381;SDS011;7275;50.328;8.720;2022-10-18T11:52:35;1.33;;;0.60;;
14381;SDS011;7275;50.328;8.720;2022-10-18T11:55:13;0.52;;;0.52;;
14381;SDS011;7275;50.328;8.720;2022-10-18T11:57:59;0.40;;;0.40;;
14381;SDS011;7275;50.328;8.720;2022-10-18T12:00:34;0.60;;;0.60;;
14381;SDS011;7275;50.328;8.720;2022-10-18T12:03:13;0.88;;;0.60;;
14381;SDS011;7275;50.328;8.720;2022-10-18T12:05:47;0.40;;;0.40;;
14381;SDS011;7275;50.328;8.720;2022-10-18T12:08:17;0.68;;;0.50;;
14381;SDS011;7275;50.328;8.720;2022-10-18T12:10:50;0.50;;;0.50;;
14381;SDS011;7275;50.328;8.720;2022-10-18T12:13:32;0.90;;;0.80;;
14381;SDS011;7275;50.328;8.720;2022-10-18T12:16:02;0.50;;;0.50;;
14381;SDS011;7275;50.328;8.720;2022-10-18T12:18:33;0.63;;;0.63;;
14381;SDS011;7275;50.328;8.720;2022-10-18T12:21:04;0.77;;;0.77;;
14381;SDS011;7275;50.328;8.720;2022-10-18T12:23:35;0.85;;;0.70;;
14381;SDS011;7275;50.328;8.720;2022-10-18T12:26:08;0.80;;;0.80;;
14381;SDS011;7275;50.328;8.720;2022-10-18T12:28:40;0.90;;;0.65;;
14381;SDS011;7275;50.328;8.720;2022-10-18T12:31:15;0.80;;;0.80;;
14381;SDS011;7275;50.328;8.720;2022-10-18T12:33:49;0.80;;;0.80;;
14381;SDS011;7275;50.328;8.720;2022-10-18T12:36:43;0.70;;;0.70;;
14381;SDS011;7275;50.328;8.720;2022-10-18T12:39:19;1.23;;;0.80;;
14381;SDS011;7275;50.328;8.720;2022-10-18T12:42:15;0.70;;;0.70;;
14381;SDS011;7275;50.328;8.720;2022-10-18T12:44:45;0.88;;;0.80;;
14381;SDS011;7275;50.328;8.720;2022-10-18T12:47:19;0.90;;;0.90;;
14381;SDS011;7275;50.328;8.720;2022-10-18T12:49:54;0.77;;;0.70;;
14381;SDS011;7275;50.328;8.720;2022-10-18T12:52:25;0.75;;;0.60;;
14381;SDS011;7275;50.328;8.720;2022-10-18T12:55:01;1.23;;;0.80;;
14381;SDS011;7275;50.328;8.720;2022-10-18T12:57:59;0.80;;;0.80;;
14381;SDS011;7275;50.328;8.720;2022-10-18T13:03:39;0.60;;;0.60;;
14381;SDS011;7275;50.328;8.720;2022-10-18T13:06:17;0.60;;;0.60;;
14381;SDS011;7275;50.328;8.720;2022-10-18T13:08:46;1.48;;;0.90;;
14381;SDS011;7275;50.328;8.720;2022-10-18T13:11:27;0.80;;;0.80;;
14381;SDS011;7275;50.328;8.720;2022-10-18T13:14:14;0.80;;;0.80;;
14381;SDS011;7275;50.328;8.720;2022-10-18T13:16:51;1.42;;;0.80;;
14381;SDS011;7275;50.328;8.720;2022-10-18T13:19:26;0.80;;;0.80;;
14381;SDS011;7275;50.328;8.720;2022-10-18T13:22:11;0.80;;;0.80;;
14381;SDS011;7275;50.328;8.720;2022-10-18T13:24:55;1.15;;;1.00;;
14381;SDS011;7275;50.328;8.720;2022-10-18T13:27:32;0.85;;;0.85;;
14381;SDS011;7275;50.328;8.720;2022-10-18T13:33:15;1.27;;;0.90;;
14381;SDS011;7275;50.328;8.720;2022-10-18T13:35:52;1.17;;;1.08;;
14381;SDS011;7275;50.328;8.720;2022-10-18T13:42:16;0.95;;;0.80;;
14381;SDS011;7275;50.328;8.720;2022-10-18T13:44:38;0.80;;;0.80;;
14381;SDS011;7275;50.328;8.720;2022-10-18T13:47:08;0.80;;;0.80;;
14381;SDS011;7275;50.328;8.720;2022-10-18T13:49:41;0.70;;;0.70;;
14381;SDS011;7275;50.328;8.720;2022-10-18T13:52:28;0.80;;;0.73;;
14381;SDS011;7275;50.328;8.720;2022-10-18T13:55:15;0.80;;;0.80;;
14381;SDS011;7275;50.328;8.720;2022-10-18T13:58:00;1.15;;;0.80;;
14381;SDS011;7275;50.328;8.720;2022-10-18T14:00:49;1.95;;;0.80;;
14381;SDS011;7275;50.328;8.720;2022-10-18T14:03:34;0.77;;;0.77;;
14381;SDS011;7275;50.328;8.720;2022-10-18T14:06:24;1.70;;;0.90;;
14381;SDS011;7275;50.328;8.720;2022-10-18T14:08:56;0.80;;;0.80;;
14381;SDS011;7275;50.328;8.720;2022-10-18T14:11:45;0.70;;;0.70;;
14381;SDS011;7275;50.328;8.720;2022-10-18T14:14:17;1.45;;;0.70;;
14381;SDS011;7275;50.328;8.720;2022-10-18T14:16:53;0.60;;;0.57;;
14381;SDS011;7275;50.328;8.720;2022-10-18T14:19:27;1.63;;;0.70;;
14381;SDS011;7275;50.328;8.720;2022-10-18T14:22:03;0.60;;;0.60;;
14381;SDS011;7275;50.328;8.720;2022-10-18T14:24:37;0.70;;;0.70;;
14381;SDS011;7275;50.328;8.720;2022-10-18T14:27:15;1.08;;;0.80;;
14381;SDS011;7275;50.328;8.720;2022-10-18T14:29:46;0.98;;;0.88;;
14381;SDS011;7275;50.328;8.720;2022-10-18T14:32:20;0.70;;;0.65;;
14381;SDS011;7275;50.328;8.720;2022-10-18T14:34:51;0.95;;;0.75;;
14381;SDS011;7275;50.328;8.720;2022-10-18T14:37:39;0.70;;;0.70;;
14381;SDS011;7275;50.328;8.720;2022-10-18T14:40:20;0.73;;;0.73;;
14381;SDS011;7275;50.328;8.720;2022-10-18T14:42:52;0.75;;;0.75;;
14381;SDS011;7275;50.328;8.720;2022-10-18T14:45:21;0.90;;;0.80;;
14381;SDS011;7275;50.328;8.720;2022-10-18T14:47:49;0.90;;;0.80;;
14381;SDS011;7275;50.328;8.720;2022-10-18T14:50:20;1.48;;;0.82;;
14381;SDS011;7275;50.328;8.720;2022-10-18T14:52:49;0.80;;;0.75;;
14381;SDS011;7275;50.328;8.720;2022-10-18T14:55:17;4.03;;;1.15;;
14381;SDS011;7275;50.328;8.720;2022-10-18T14:57:49;0.90;;;0.90;;
14381;SDS011;7275;50.328;8.720;2022-10-18T15:00:19;2.85;;;0.90;;
14381;SDS011;7275;50.328;8.720;2022-10-18T15:02:50;3.92;;;1.00;;
14381;SDS011;7275;50.328;8.720;2022-10-18T15:05:18;1.13;;;0.80;;
14381;SDS011;7275;50.328;8.720;2022-10-18T15:07:48;1.58;;;1.00;;
14381;SDS011;7275;50.328;8.720;2022-10-18T15:10:19;1.10;;;0.95;;
14381;SDS011;7275;50.328;8.720;2022-10-18T15:12:49;1.10;;;1.00;;
14381;SDS011;7275;50.328;8.720;2022-10-18T15:15:36;1.60;;;1.00;;
14381;SDS011;7275;50.328;8.720;2022-10-18T15:18:05;0.95;;;0.90;;
14381;SDS011;7275;50.328;8.720;2022-10-18T15:20:34;1.10;;;1.00;;
14381;SDS011;7275;50.328;8.720;2022-10-18T15:25:59;0.80;;;0.80;;
14381;SDS011;7275;50.328;8.720;2022-10-18T15:28:29;1.67;;;0.90;;
14381;SDS011;7275;50.328;8.720;2022-10-18T15:31:02;0.90;;;0.90;;
14381;SDS011;7275;50.328;8.720;2022-10-18T15:33:30;1.42;;;1.00;;
14381;SDS011;7275;50.328;8.720;2022-10-18T15:36:09;1.25;;;1.00;;
14381;SDS011;7275;50.328;8.720;2022-10-18T15:38:52;1.13;;;0.98;;
14381;SDS011;7275;50.328;8.720;2022-10-18T15:41:35;2.63;;;0.95;;
14381;SDS011;7275;50.328;8.720;2022-10-18T15:44:13;1.00;;;1.00;;
14381;SDS011;7275;50.328;8.720;2022-10-18T15:46:50;0.73;;;0.73;;
14381;SDS011;7275;50.328;8.720;2022-10-18T15:58:17;1.27;;;0.68;;